createdAt,value
2019-03-23T00:00:24.214Z,46.21
2019-03-23T00:02:58.860Z,46.15
2019-03-23T00:05:33.379Z,46.16
2019-03-23T00:08:07.837Z,46.15
2019-03-23T00:10:42.306Z,46.21
2019-03-23T00:13:16.809Z,46.19
2019-03-23T00:15:51.257Z,46.17
2019-03-23T00:18:25.679Z,46.20
2019-03-23T00:21:00.335Z,46.21
2019-03-23T00:23:34.856Z,46.22
2019-03-23T00:26:09.667Z,46.22
2019-03-23T00:28:44.072Z,46.20
2019-03-23T00:31:18.814Z,46.21
2019-03-23T00:33:53.106Z,46.15
2019-03-23T00:36:27.504Z,46.16
2019-03-23T00:39:02.072Z,46.24
2019-03-23T00:41:36.848Z,46.21
2019-03-23T00:44:11.595Z,46.19
2019-03-23T00:46:46.040Z,46.18
2019-03-23T00:49:20.863Z,46.21
2019-03-23T00:51:55.268Z,46.20
2019-03-23T00:54:30.241Z,46.18
2019-03-23T00:57:04.949Z,46.17
2019-03-23T00:59:39.420Z,46.23
2019-03-23T01:02:14.017Z,46.22
2019-03-23T01:04:48.510Z,46.25
2019-03-23T01:07:23.122Z,46.21
2019-03-23T01:09:57.446Z,46.23
2019-03-23T01:12:33.136Z,46.22
2019-03-23T01:15:08.331Z,46.23
2019-03-23T01:17:42.980Z,46.15
2019-03-23T01:20:17.620Z,46.21
2019-03-23T01:22:52.496Z,46.16
2019-03-23T01:25:26.949Z,46.19
2019-03-23T01:28:01.535Z,46.33
2019-03-23T01:30:37.176Z,46.16
2019-03-23T01:33:12.311Z,46.23
2019-03-23T01:35:46.911Z,46.19
2019-03-23T01:38:21.484Z,46.14
2019-03-23T01:40:55.802Z,46.14
2019-03-23T01:43:30.480Z,46.20
2019-03-23T01:46:05.094Z,46.21
2019-03-23T01:48:39.709Z,46.19
2019-03-23T01:51:14.326Z,46.13
2019-03-23T01:53:48.914Z,46.21
2019-03-23T01:56:23.539Z,46.15
2019-03-23T01:58:58.159Z,46.22
2019-03-23T02:01:32.852Z,46.16
2019-03-23T02:04:07.405Z,46.23
2019-03-23T02:06:41.837Z,46.24
2019-03-23T02:09:16.428Z,46.07
2019-03-23T02:11:51.184Z,46.17
2019-03-23T02:14:25.753Z,46.08
2019-03-23T02:17:00.437Z,45.99
2019-03-23T02:19:34.840Z,46.06
2019-03-23T02:22:09.339Z,45.98
2019-03-23T02:24:44.011Z,45.79
2019-03-23T02:27:19.287Z,45.87
2019-03-23T02:29:53.991Z,45.72
2019-03-23T02:32:28.610Z,45.59
2019-03-23T02:35:03.008Z,45.62
2019-03-23T02:37:37.519Z,45.56
2019-03-23T02:40:13.575Z,45.54
2019-03-23T02:42:48.762Z,45.38
2019-03-23T02:45:23.501Z,45.49
2019-03-23T02:47:58.314Z,45.49
2019-03-23T02:50:32.977Z,45.45
2019-03-23T02:53:07.974Z,45.46
2019-03-23T02:55:42.791Z,45.32
2019-03-23T02:58:17.367Z,45.42
2019-03-23T03:00:51.835Z,45.42
2019-03-23T03:03:26.146Z,45.47
2019-03-23T03:06:01.419Z,45.48
2019-03-23T03:08:36.087Z,45.31
2019-03-23T03:11:11.660Z,45.31
2019-03-23T03:13:46.102Z,45.43
2019-03-23T03:16:20.643Z,45.52
2019-03-23T03:18:55.399Z,45.34
2019-03-23T03:21:29.989Z,45.49
2019-03-23T03:24:04.541Z,45.35
2019-03-23T03:26:38.960Z,45.38
2019-03-23T03:29:13.469Z,45.41
2019-03-23T03:31:48.163Z,45.31
2019-03-23T03:34:22.946Z,45.45
2019-03-23T03:36:57.463Z,45.30
2019-03-23T03:39:32.097Z,45.11
2019-03-23T03:42:06.794Z,45.24
2019-03-23T03:44:41.657Z,45.19
2019-03-23T03:47:16.257Z,45.25
2019-03-23T03:49:51.033Z,45.27
2019-03-23T03:52:25.517Z,45.28
2019-03-23T03:54:59.843Z,45.31
2019-03-23T03:57:34.492Z,45.13
2019-03-23T04:00:09.840Z,45.30
2019-03-23T04:02:44.473Z,45.20
2019-03-23T04:05:18.940Z,45.06
2019-03-23T04:07:53.791Z,45.24
2019-03-23T04:10:28.563Z,45.13
2019-03-23T04:13:03.007Z,45.24
2019-03-23T04:15:37.985Z,45.30
2019-03-23T04:18:12.622Z,45.21
2019-03-23T04:20:47.406Z,45.19
2019-03-23T04:23:22.379Z,45.25
2019-03-23T04:25:57.212Z,45.36
2019-03-23T04:28:32.437Z,45.15
2019-03-23T04:31:07.066Z,45.17
2019-03-23T04:33:41.978Z,45.07
2019-03-23T04:36:16.397Z,45.07
2019-03-23T04:38:50.977Z,45.05
2019-03-23T04:41:25.673Z,45.16
2019-03-23T04:44:00.365Z,45.11
2019-03-23T04:46:35.751Z,45.19
2019-03-23T04:49:10.153Z,45.19
2019-03-23T04:51:44.716Z,45.21
2019-03-23T04:54:19.556Z,45.12
2019-03-23T04:56:54.233Z,45.10
2019-03-23T04:59:28.968Z,45.11
2019-03-23T05:02:03.441Z,45.05
2019-03-23T05:04:37.921Z,45.04
2019-03-23T05:07:12.387Z,45.08
2019-03-23T05:09:46.869Z,44.80
2019-03-23T05:12:21.415Z,45.00
2019-03-23T05:14:55.780Z,44.58
2019-03-23T05:17:30.420Z,44.72
2019-03-23T05:20:04.939Z,44.73
2019-03-23T05:22:39.382Z,44.68
2019-03-23T05:25:24.222Z,44.57
2019-03-23T05:27:58.694Z,44.86
2019-03-23T05:30:33.181Z,44.55
2019-03-23T05:33:07.910Z,44.71
2019-03-23T05:35:42.709Z,44.56
2019-03-23T05:38:17.118Z,44.76
2019-03-23T05:40:51.773Z,44.63
2019-03-23T05:43:26.414Z,44.58
2019-03-23T05:46:00.899Z,44.48
2019-03-23T05:48:35.713Z,44.64
2019-03-23T05:51:10.188Z,44.37
2019-03-23T05:53:44.873Z,44.16
2019-03-23T05:56:19.488Z,44.47
2019-03-23T05:58:54.676Z,44.25
2019-03-23T06:01:29.104Z,44.32
2019-03-23T06:04:03.455Z,44.47
2019-03-23T06:06:37.999Z,44.07
2019-03-23T06:09:12.709Z,44.34
2019-03-23T06:11:47.372Z,44.34
2019-03-23T06:14:21.944Z,43.75
2019-03-23T06:16:56.396Z,43.98
2019-03-23T06:19:31.016Z,44.07
2019-03-23T06:22:05.675Z,44.04
2019-03-23T06:24:40.337Z,44.06
2019-03-23T06:27:14.823Z,43.87
2019-03-23T06:29:49.569Z,43.84
2019-03-23T06:32:23.968Z,44.04
2019-03-23T06:34:58.377Z,43.84
2019-03-23T06:37:33.046Z,44.08
2019-03-23T06:40:08.693Z,43.90
2019-03-23T06:42:43.023Z,44.13
2019-03-23T06:45:17.818Z,44.21
2019-03-23T06:47:52.454Z,44.17
2019-03-23T06:50:27.144Z,44.13
2019-03-23T06:53:01.646Z,43.89
2019-03-23T06:55:36.398Z,43.93
2019-03-23T06:58:10.823Z,43.72
2019-03-23T07:00:45.502Z,43.87
2019-03-23T07:03:21.189Z,43.98
2019-03-23T07:05:55.906Z,43.83
2019-03-23T07:08:32.248Z,44.10
2019-03-23T07:11:07.027Z,43.96
2019-03-23T07:13:41.636Z,43.92
2019-03-23T07:16:16.218Z,43.73
2019-03-23T07:18:51.091Z,43.99
2019-03-23T07:21:25.662Z,43.82
2019-03-23T07:24:00.608Z,44.06
2019-03-23T07:26:35.258Z,43.61
2019-03-23T07:29:10.201Z,44.01
2019-03-23T07:31:44.913Z,44.26
2019-03-23T07:34:19.556Z,43.88
2019-03-23T07:36:54.180Z,43.96
2019-03-23T07:39:30.509Z,44.04
2019-03-23T07:42:05.423Z,44.01
2019-03-23T07:44:40.820Z,43.76
2019-03-23T07:47:15.175Z,43.61
2019-03-23T07:49:49.906Z,43.30
2019-03-23T07:52:24.312Z,43.89
2019-03-23T07:54:59.044Z,43.59
2019-03-23T07:57:33.582Z,43.68
2019-03-23T08:00:09.039Z,43.74
2019-03-23T08:02:43.497Z,43.92
2019-03-23T08:05:18.338Z,43.10
2019-03-23T08:07:53.199Z,43.18
2019-03-23T08:10:35.406Z,42.90
2019-03-23T08:13:10.316Z,43.30
2019-03-23T08:15:44.778Z,43.08
2019-03-23T08:18:19.326Z,43.10
2019-03-23T08:20:53.708Z,42.98
2019-03-23T08:23:28.302Z,42.98
2019-03-23T08:26:02.802Z,43.09
2019-03-23T08:28:37.366Z,43.10
2019-03-23T08:31:11.792Z,43.26
2019-03-23T08:33:46.391Z,42.76
2019-03-23T08:36:20.838Z,43.03
2019-03-23T08:38:55.658Z,43.03
2019-03-23T08:41:30.632Z,43.21
2019-03-23T08:44:05.247Z,43.06
2019-03-23T08:46:39.748Z,43.26
2019-03-23T08:49:14.405Z,43.12
2019-03-23T08:51:49.130Z,43.09
2019-03-23T08:54:23.500Z,43.02
2019-03-23T08:56:58.221Z,42.90
2019-03-23T08:59:32.690Z,43.07
2019-03-23T09:02:07.632Z,43.00
2019-03-23T09:04:42.118Z,43.19
2019-03-23T09:07:17.043Z,42.92
2019-03-23T09:09:59.193Z,42.68
2019-03-23T09:12:27.899Z,42.84
2019-03-23T09:15:02.633Z,42.90
2019-03-23T09:17:37.695Z,42.77
2019-03-23T09:20:14.134Z,42.89
2019-03-23T09:22:48.760Z,42.93
2019-03-23T09:25:23.366Z,42.77
2019-03-23T09:27:57.821Z,42.80
2019-03-23T09:30:32.484Z,42.81
2019-03-23T09:33:07.020Z,42.84
2019-03-23T09:35:41.302Z,42.81
2019-03-23T09:38:15.686Z,42.67
2019-03-23T09:40:50.227Z,42.52
2019-03-23T09:43:24.662Z,42.49
2019-03-23T09:45:59.016Z,42.35
2019-03-23T09:48:33.448Z,42.36
2019-03-23T09:51:07.923Z,42.32
2019-03-23T09:53:42.345Z,42.22
2019-03-23T09:56:16.683Z,42.34
2019-03-23T09:58:51.086Z,42.16
2019-03-23T10:01:25.759Z,42.21
2019-03-23T10:04:00.156Z,42.11
2019-03-23T10:06:34.580Z,42.07
2019-03-23T10:09:09.804Z,42.10
2019-03-23T10:11:44.477Z,42.03
2019-03-23T10:14:19.186Z,42.01
2019-03-23T10:16:53.869Z,41.76
2019-03-23T10:19:28.426Z,41.83
2019-03-23T10:22:03.112Z,41.80
2019-03-23T10:24:37.814Z,41.72
2019-03-23T10:27:13.754Z,41.78
2019-03-23T10:29:48.472Z,41.74
2019-03-23T10:32:23.247Z,41.70
2019-03-23T10:34:57.848Z,41.79
2019-03-23T10:37:32.427Z,41.74
2019-03-23T10:40:07.477Z,41.67
2019-03-23T10:42:43.595Z,41.71
2019-03-23T10:45:18.407Z,41.61
2019-03-23T10:47:53.306Z,41.64
2019-03-23T10:50:28.040Z,41.56
2019-03-23T10:53:02.824Z,41.62
2019-03-23T10:55:37.125Z,41.38
2019-03-23T10:58:11.595Z,41.54
2019-03-23T11:00:46.344Z,41.56
2019-03-23T11:03:20.880Z,41.52
2019-03-23T11:05:55.438Z,41.68
2019-03-23T11:08:30.195Z,41.73
2019-03-23T11:11:05.593Z,41.79
2019-03-23T11:13:39.897Z,41.93
2019-03-23T11:16:14.584Z,41.95
2019-03-23T11:18:49.214Z,41.93
2019-03-23T11:21:23.801Z,42.10
2019-03-23T11:23:58.173Z,42.07
2019-03-23T11:26:32.655Z,42.23
2019-03-23T11:29:08.423Z,42.25
2019-03-23T11:31:43.149Z,42.19
2019-03-23T11:34:18.286Z,42.26
2019-03-23T11:36:52.847Z,42.33
2019-03-23T11:39:27.481Z,42.39
2019-03-23T11:42:01.879Z,42.47
2019-03-23T11:44:36.205Z,42.48
2019-03-23T11:47:11.059Z,42.62
2019-03-23T11:49:45.491Z,42.70
2019-03-23T11:52:20.021Z,42.80
2019-03-23T11:54:54.505Z,42.83
2019-03-23T11:57:28.879Z,42.96
2019-03-23T12:00:03.573Z,42.95
2019-03-23T12:02:38.187Z,42.98
2019-03-23T12:05:13.167Z,43.07
2019-03-23T12:07:47.742Z,43.16
2019-03-23T12:10:22.146Z,43.25
2019-03-23T12:12:56.704Z,43.27
2019-03-23T12:15:31.207Z,43.33
2019-03-23T12:18:05.529Z,43.42
2019-03-23T12:20:40.351Z,43.57
2019-03-23T12:23:14.908Z,43.61
2019-03-23T12:25:49.222Z,43.59
2019-03-23T12:28:23.751Z,43.69
2019-03-23T12:30:58.861Z,43.68
2019-03-23T12:33:33.204Z,43.77
2019-03-23T12:36:07.691Z,43.78
2019-03-23T12:38:42.123Z,43.90
2019-03-23T12:41:23.012Z,43.92
2019-03-23T12:43:52.794Z,44.01
2019-03-23T12:46:27.400Z,43.97
2019-03-23T12:49:02.066Z,44.13
2019-03-23T12:51:36.497Z,44.16
2019-03-23T12:54:10.957Z,44.20
2019-03-23T12:56:45.445Z,44.33
2019-03-23T12:59:19.903Z,44.39
2019-03-23T13:01:54.346Z,44.39
2019-03-23T13:04:29.004Z,44.44
2019-03-23T13:07:03.482Z,44.54
2019-03-23T13:09:38.193Z,44.58
2019-03-23T13:12:12.854Z,44.45
2019-03-23T13:14:54.938Z,44.41
2019-03-23T13:17:29.510Z,44.12
2019-03-23T13:20:03.965Z,44.24
2019-03-23T13:22:38.962Z,44.31
2019-03-23T13:25:13.823Z,44.44
2019-03-23T13:27:49.097Z,41.28
2019-03-23T13:30:23.800Z,39.85
2019-03-23T13:32:58.308Z,38.90
2019-03-23T13:35:32.967Z,39.15
2019-03-23T13:38:07.585Z,38.99
2019-03-23T13:40:42.327Z,39.11
2019-03-23T13:43:16.923Z,39.88
2019-03-23T13:45:52.467Z,39.68
2019-03-23T13:48:27.166Z,42.08
2019-03-23T13:51:01.865Z,43.31
2019-03-23T13:53:37.794Z,43.79
2019-03-23T13:56:12.520Z,43.98
2019-03-23T13:58:47.050Z,44.23
2019-03-23T14:01:22.271Z,44.27
2019-03-23T14:03:57.240Z,44.41
2019-03-23T14:06:31.880Z,44.54
2019-03-23T14:09:06.845Z,44.71
2019-03-23T14:11:41.185Z,44.78
2019-03-23T14:14:15.738Z,44.83
2019-03-23T14:16:50.565Z,45.04
2019-03-23T14:19:25.274Z,45.06
2019-03-23T14:21:59.806Z,45.11
2019-03-23T14:24:34.180Z,45.21
2019-03-23T14:27:08.619Z,45.27
2019-03-23T14:29:43.032Z,45.33
2019-03-23T14:32:18.012Z,45.32
2019-03-23T14:34:52.742Z,45.49
2019-03-23T14:37:27.214Z,45.58
2019-03-23T14:40:01.948Z,45.64
2019-03-23T14:42:37.439Z,45.66
2019-03-23T14:45:12.384Z,45.77
2019-03-23T14:47:46.810Z,45.81
2019-03-23T14:50:21.435Z,45.83
2019-03-23T14:52:55.798Z,45.90
2019-03-23T14:55:30.190Z,45.80
2019-03-23T14:58:04.888Z,45.93
2019-03-23T15:00:39.740Z,46.01
2019-03-23T15:03:14.339Z,45.96
2019-03-23T15:05:48.717Z,45.93
2019-03-23T15:08:23.166Z,46.02
2019-03-23T15:10:57.817Z,46.05
2019-03-23T15:13:32.164Z,46.13
2019-03-23T15:16:06.683Z,46.13
2019-03-23T15:18:41.299Z,46.22
2019-03-23T15:21:15.839Z,46.23
2019-03-23T15:23:50.704Z,46.25
2019-03-23T15:26:25.302Z,46.21
2019-03-23T15:29:00.269Z,46.30
2019-03-23T15:31:35.210Z,46.27
2019-03-23T15:34:09.861Z,46.32
2019-03-23T15:36:44.526Z,46.26
2019-03-23T15:39:19.262Z,46.23
2019-03-23T15:41:53.770Z,46.43
2019-03-23T15:44:28.071Z,46.31
2019-03-23T15:47:02.792Z,46.43
2019-03-23T15:49:37.273Z,46.39
2019-03-23T15:52:12.376Z,46.33
2019-03-23T15:54:47.232Z,46.34
2019-03-23T15:57:22.056Z,46.39
2019-03-23T15:59:56.703Z,46.57
2019-03-23T16:02:31.617Z,46.47
2019-03-23T16:05:06.561Z,46.56
2019-03-23T16:07:41.368Z,46.56
2019-03-23T16:10:16.133Z,46.59
2019-03-23T16:12:50.717Z,46.50
2019-03-23T16:15:25.293Z,46.57
2019-03-23T16:18:01.578Z,46.53
2019-03-23T16:20:36.170Z,46.57
2019-03-23T16:23:10.616Z,46.49
2019-03-23T16:25:45.171Z,46.50
2019-03-23T16:28:19.655Z,46.54
2019-03-23T16:30:54.163Z,46.61
2019-03-23T16:33:29.052Z,46.63
2019-03-23T16:36:03.707Z,46.65
2019-03-23T16:38:38.098Z,46.63
2019-03-23T16:41:12.666Z,46.71
2019-03-23T16:43:47.306Z,46.66
2019-03-23T16:46:21.765Z,46.61
2019-03-23T16:48:56.454Z,46.72
2019-03-23T16:51:30.963Z,46.50
2019-03-23T16:54:05.596Z,46.57
2019-03-23T16:56:40.375Z,46.54
2019-03-23T16:59:14.894Z,46.69
2019-03-23T17:01:49.451Z,46.66
2019-03-23T17:04:24.119Z,46.67
2019-03-23T17:06:58.614Z,46.70
2019-03-23T17:09:32.978Z,46.70
2019-03-23T17:12:07.590Z,46.64
2019-03-23T17:14:42.064Z,46.68
2019-03-23T17:17:16.384Z,46.80
2019-03-23T17:19:51.109Z,46.67
2019-03-23T17:22:25.524Z,46.75
2019-03-23T17:25:00.045Z,46.71
2019-03-23T17:27:34.600Z,46.78
2019-03-23T17:30:10.576Z,46.63
2019-03-23T17:32:45.074Z,46.70
2019-03-23T17:35:19.768Z,46.83
2019-03-23T17:37:54.227Z,46.85
2019-03-23T17:40:29.189Z,46.93
2019-03-23T17:43:06.097Z,46.85
2019-03-23T17:45:40.278Z,46.88
2019-03-23T17:48:14.892Z,46.77
2019-03-23T17:50:49.394Z,46.91
2019-03-23T17:53:23.870Z,46.86
2019-03-23T17:55:58.267Z,47.04
2019-03-23T17:58:32.653Z,46.85
2019-03-23T18:01:07.750Z,46.89
2019-03-23T18:03:42.504Z,46.96
2019-03-23T18:06:17.066Z,46.96
2019-03-23T18:08:51.548Z,47.00
2019-03-23T18:11:26.362Z,46.80
2019-03-23T18:14:00.934Z,46.87
2019-03-23T18:16:35.889Z,47.06
2019-03-23T18:19:10.483Z,46.91
2019-03-23T18:21:44.997Z,46.87
2019-03-23T18:24:19.741Z,46.81
2019-03-23T18:26:54.214Z,46.79
2019-03-23T18:29:28.780Z,46.90
2019-03-23T18:32:04.382Z,47.12
2019-03-23T18:34:39.086Z,47.08
2019-03-23T18:37:13.585Z,47.03
2019-03-23T18:39:48.306Z,46.96
2019-03-23T18:42:23.065Z,46.84
2019-03-23T18:44:57.756Z,46.97
2019-03-23T18:47:32.357Z,47.05
2019-03-23T18:50:07.008Z,47.13
2019-03-23T18:52:41.485Z,47.14
2019-03-23T18:55:16.240Z,47.14
2019-03-23T18:57:50.841Z,47.09
2019-03-23T19:00:42.123Z,47.06
2019-03-23T19:03:16.594Z,46.98
2019-03-23T19:05:50.940Z,47.02
2019-03-23T19:08:25.358Z,47.12
2019-03-23T19:11:00.386Z,47.09
2019-03-23T19:13:38.125Z,47.05
2019-03-23T19:16:11.287Z,46.98
2019-03-23T19:18:45.783Z,46.99
2019-03-23T19:21:20.289Z,47.01
2019-03-23T19:23:55.014Z,47.05
2019-03-23T19:26:29.287Z,47.02
2019-03-23T19:29:04.224Z,47.01
2019-03-23T19:31:38.606Z,47.09
2019-03-23T19:34:13.383Z,47.07
2019-03-23T19:36:47.821Z,47.09
2019-03-23T19:39:22.629Z,47.09
2019-03-23T19:41:57.552Z,47.09
2019-03-23T19:44:32.019Z,47.09
2019-03-23T19:47:06.857Z,47.07
2019-03-23T19:49:41.250Z,47.03
2019-03-23T19:52:15.703Z,47.06
2019-03-23T19:54:50.318Z,46.96
2019-03-23T19:57:25.063Z,47.00
2019-03-23T19:59:59.947Z,47.01
2019-03-23T20:02:34.610Z,46.94
2019-03-23T20:05:09.422Z,46.99
2019-03-23T20:07:44.168Z,47.04
2019-03-23T20:10:18.851Z,47.02
2019-03-23T20:12:53.652Z,47.00
2019-03-23T20:15:28.289Z,46.99
2019-03-23T20:18:02.692Z,47.00
2019-03-23T20:20:37.112Z,46.92
2019-03-23T20:23:12.265Z,46.90
2019-03-23T20:25:46.999Z,46.90
2019-03-23T20:28:21.371Z,46.98
2019-03-23T20:30:56.004Z,47.01
2019-03-23T20:33:30.603Z,47.00
2019-03-23T20:36:05.182Z,47.01
2019-03-23T20:38:39.658Z,47.04
2019-03-23T20:41:14.298Z,47.02
2019-03-23T20:43:48.656Z,47.05
2019-03-23T20:46:23.231Z,47.04
2019-03-23T20:48:58.438Z,47.00
2019-03-23T20:51:33.025Z,47.11
2019-03-23T20:54:07.635Z,47.10
2019-03-23T20:56:42.037Z,47.12
2019-03-23T20:59:16.451Z,47.17
2019-03-23T21:01:50.863Z,47.17
2019-03-23T21:04:25.591Z,47.13
2019-03-23T21:07:00.309Z,47.13
2019-03-23T21:09:34.908Z,47.14
2019-03-23T21:12:09.546Z,47.20
2019-03-23T21:14:44.170Z,47.16
2019-03-23T21:17:18.694Z,47.14
2019-03-23T21:19:53.985Z,47.09
2019-03-23T21:22:28.407Z,47.16
2019-03-23T21:25:02.924Z,47.14
2019-03-23T21:27:38.490Z,47.11
2019-03-23T21:30:14.391Z,47.10
2019-03-23T21:32:48.824Z,47.14
2019-03-23T21:35:23.214Z,47.14
2019-03-23T21:37:58.681Z,47.11
2019-03-23T21:40:35.043Z,47.10
2019-03-23T21:43:10.468Z,47.12
2019-03-23T21:45:44.777Z,47.09
2019-03-23T21:48:19.422Z,47.11
2019-03-23T21:50:53.845Z,47.09
2019-03-23T21:53:28.351Z,47.10
2019-03-23T21:56:02.790Z,47.06
2019-03-23T21:58:37.221Z,47.08
2019-03-23T22:01:11.973Z,47.12
2019-03-23T22:03:46.365Z,47.06
2019-03-23T22:06:20.933Z,47.08
2019-03-23T22:08:55.435Z,47.08
2019-03-23T22:11:29.878Z,47.07
2019-03-23T22:14:04.238Z,47.08
2019-03-23T22:16:38.874Z,47.09
2019-03-23T22:19:13.297Z,47.13
2019-03-23T22:21:47.673Z,47.07
2019-03-23T22:24:22.170Z,47.06
2019-03-23T22:26:56.568Z,47.07
2019-03-23T22:29:31.331Z,47.07
2019-03-23T22:32:05.920Z,47.02
2019-03-23T22:34:40.584Z,47.04
2019-03-23T22:37:14.975Z,47.09
2019-03-23T22:39:49.755Z,47.11
2019-03-23T22:42:24.108Z,47.10
2019-03-23T22:44:59.870Z,47.09
2019-03-23T22:47:34.397Z,47.09
2019-03-23T22:50:09.954Z,47.07
2019-03-23T22:52:44.522Z,47.06
2019-03-23T22:55:19.008Z,47.03
2019-03-23T22:57:53.556Z,47.06
2019-03-23T23:00:43.735Z,47.12
2019-03-23T23:03:18.809Z,47.12
2019-03-23T23:05:53.714Z,47.13
2019-03-23T23:08:28.250Z,47.08
2019-03-23T23:11:02.663Z,47.13
2019-03-23T23:13:37.127Z,47.14
2019-03-23T23:16:11.743Z,47.14
2019-03-23T23:18:46.183Z,47.16
2019-03-23T23:21:21.037Z,47.16
2019-03-23T23:23:55.449Z,47.16
2019-03-23T23:26:29.829Z,47.15
2019-03-23T23:29:04.541Z,47.17
2019-03-23T23:31:38.913Z,47.19
2019-03-23T23:34:13.437Z,47.18
2019-03-23T23:36:47.874Z,47.17
2019-03-23T23:39:22.256Z,47.19
2019-03-23T23:41:56.595Z,47.15
2019-03-23T23:44:31.109Z,47.17
2019-03-23T23:47:05.615Z,47.16
2019-03-23T23:49:40.175Z,47.18
2019-03-23T23:52:14.426Z,47.16
2019-03-23T23:54:48.968Z,47.24
2019-03-23T23:57:23.268Z,47.24
2019-03-23T23:59:57.765Z,47.18
